Alderton, Washington
Current Conditions -  °F | °C
As of 4:58 AM on Thursday 30 Oct 2014 (Local Time) from KTCM Reporting Station
Overcast Overcast  
Wind Chill: 51°   Ceiling: 9000
Heat Index: 51°   Visibility: 10mi
Dew Point: 51°   Wind: 0mph
Humidity: 99%   Direction: NA
Pressure: 29.91"   Gusts: NA
Location:  47.1905°N, 122.328°W
Report Text: KTCM 301158Z AUTO 00000KT 10SM BKN090 OVC110 11/10 A2991 RMK AO2 RAB1117E1126 SLP132 P0000 60000 70002 T01050104 10109 20099 57024
Loading
Personal Weather Stations






























Interactive Weather Map New forecast layout! Learn more

10-Day Weather Forecast

Advertisements
Track Severe Weather on mobile